Guilherme Rocha

Scout - Atletico Goianiense
23 Apr 2028
Sonntag
Verarbeitung

Persönlichkeit

Anpassungsfähigkeit (13) Ehrgeiz (8) Kontroverse (3) Loyalität (15) Druck (15) Professionalität (13) Fairness (2) Temperament (14)

Profil

Trainerstil Demokratisch
Lizenz Kontinentale Pro
Entschlossenheit 11
Menschenführung 3
Motivation 8
Disziplin 10
Arbeitszufriedenheit
100%
Ermüdung
0%
Rolle Scout
Gehalt 71.2K p/W
Vertrag 14.03.2029

Leistung

Verhalten Gut
Trainingseffektivität
23%
Spielerentwicklung
55%
Verletzungsprävention
30%
Taktische Umsetzung
20%

Letzte Ereignisse

Spieler begutachtet jetzt
Nahm an einer Scouting-Besprechung teil jetzt
Empfahl ein Transferziel jetzt
Empfahl ein Transferziel jetzt
Spieler begutachtet jetzt
Spieler begutachtet 7T her
Spieler begutachtet 7T her
Spieler begutachtet 7T her

Aktuell beobachtet

202
Spieler Verein Status Fähigkeit Vertrauen Beobachtet Zuletzt beobachtet Letzte Stimme
Fabrizio Cavegn Swindon Town Aktiv 127 / 125 40% 3 21.04.2028 -
Luis Vázquez Bradford City Aktiv 129 / 124 40% 1 21.04.2028 -
Joe Gelhardt Hull City Aktiv 134 / 127 40% 1 21.04.2028 -
Kaio Jorge Mainz 05 Aktiv 141 / 146 40% 4 19.04.2028 -
Aune Heggebø West Bromwich Albion Aktiv 134 / 129 40% 2 19.04.2028 -
Brennan Johnson Middlesbrough Aktiv 158 / 139 40% 1 19.04.2028 -
Malik Mothersille Stockport County Aktiv 123 / 121 40% 2 18.04.2028 -
Daniel Maldini Atalanta Aktiv 155 / 148 40% 1 18.04.2028 -
Mateus Mané Burnley Aktiv 143 / 142 40% 1 18.04.2028 -
Rodrigo Muniz Fulham Aktiv 146 / 143 40% 1 17.04.2028 -
Patrick Cutrone Monza Aktiv 135 / 140 40% 1 17.04.2028 -
M'Bala Nzola Cagliari Aktiv 127 / 141 40% 1 17.04.2028 -
Miro Arsenal Tula Aktiv 127 / 113 40% 5 16.04.2028 -
Charlie Kelman Barnsley Aktiv 120 / 109 40% 1 16.04.2028 -
Nicolò Zaniolo Udinese Aktiv 148 / 137 40% 1 16.04.2028 -
Musa Barrow ES Setif Aktiv 137 / 133 40% 6 14.04.2028 -
Victor Adeboyejo Cotonsport Garoua Aktiv 120 / 108 40% 1 14.04.2028 -
Toni Tamarit Alverca Aktiv 118 / 121 40% 5 12.04.2028 -
Carlos Fernández Oviedo Aktiv 126 / 139 40% 2 12.04.2028 -
Simone Rabbi Ravenna Aktiv 123 / 111 40% 1 12.04.2028 -
João Félix Dinamo Moscow Aktiv 170 / 152 40% 2 07.04.2028 -
Sam Nombe Milton Keynes Dons Aktiv 111 / 105 40% 2 07.04.2028 -
Stephen Humphrys Bradford City Aktiv 121 / 104 40% 3 06.04.2028 -
Jorge Meireles AVS Aktiv 113 / 124 40% 4 06.04.2028 -
Freddie Draper Accrington Stanley Aktiv 109 / 119 40% 2 06.04.2028 -
Evidence Makgopa Orlando Pirates Aktiv 112 / 113 40% 2 05.04.2028 -
Walid Cheddira Avellino Aktiv 126 / 120 40% 1 05.04.2028 -
Oli McBurnie Hull City Aktiv 137 / 139 40% 2 04.04.2028 -
Matty Stevens AFC Wimbledon Aktiv 102 / 111 40% 1 04.04.2028 -
Daniel Karlsbakk Sarpsborg 08 Aktiv 130 / 139 40% 3 03.04.2028 -
Kyle Wootton Stockport County Aktiv 127 / 126 40% 2 03.04.2028 -
Zakaria Aboukhlal Torino Aktiv 137 / 129 40% 1 03.04.2028 -
Tyreece Campbell Charlton Athletic Aktiv 121 / 133 40% 5 02.04.2028 -
Mees Rijks Bristol Rovers Aktiv 117 / 126 40% 3 02.04.2028 -
Sam Greenwood Bristol City Aktiv 131 / 119 40% 2 02.04.2028 -
Siyabonga Mabena Bidvest Wits Aktiv 126 / 132 40% 3 01.04.2028 -
Víctor Guzmán Sporting CP Aktiv 103 / 98 40% 1 01.04.2028 -
Adrián Liso Zaragoza Aktiv 141 / 136 40% 4 31.03.2028 -
David Okereke Cremonese Aktiv 138 / 127 40% 1 31.03.2028 -
Victor Torp Bristol Rovers Aktiv 129 / 139 40% 2 30.03.2028 -
Sam Dalby Bolton Wanderers Aktiv 110 / 121 40% 1 30.03.2028 -
Karlan Grant Tranmere Rovers Aktiv 133 / 119 40% 4 29.03.2028 -
Ryan Graydon Salford City Aktiv 113 / 114 40% 1 29.03.2028 -
Dor Turgeman Rubin Aktiv 134 / 131 40% 4 28.03.2028 -
Vyacheslav Grulev Nizhniy Novgorod Aktiv 112 / 124 40% 2 28.03.2028 -
Arthur Sales Maritzburg United Aktiv 110 / 126 40% 3 26.03.2028 -
Augustus Kargbo Blackburn Rovers Aktiv 117 / 128 40% 4 26.03.2028 -
Tommy Conway Middlesbrough Aktiv 144 / 124 40% 2 25.03.2028 -
Germán Valera Elche Aktiv 151 / 147 40% 1 22.03.2028 -
Matheus Alves Baltika Aktiv 142 / 139 40% 1 22.03.2028 -
Samuele Mulattieri Sassuolo Aktiv 139 / 133 40% 1 22.03.2028 -
Igor Tyjon Barrow AFC Aktiv 114 / 123 40% 2 21.03.2028 -
Kahiser Lenis Ceará Aktiv 125 / 125 40% 2 19.03.2028 -
Yegor Golenkov Rostov Aktiv 125 / 125 40% 2 19.03.2028 -
Khanyisa Mayo CR Belouizdad Aktiv 117 / 100 40% 1 18.03.2028 -
Yuri Tanque Criciuma Aktiv 125 / 115 40% 4 17.03.2028 -
Pedro Marques Apollon Aktiv 118 / 108 40% 1 17.03.2028 -
Igor Neves Paysandu Aktiv 109 / 104 40% 4 15.03.2028 -
Ante Crnac Bristol Rovers Aktiv 123 / 134 40% 3 15.03.2028 -
Patrick Agyemang Derby County Aktiv 126 / 127 40% 2 12.03.2028 -
Erick Dolly Black Aces Aktiv 130 / 112 40% 1 12.03.2028 -
Andile Furman Platinum Stars Aktiv 96 / 108 40% 1 11.03.2028 -
Isidro Pitta Bragantino Aktiv 136 / 134 40% 3 10.03.2028 -
Johnny Kenny Preston Aktiv 128 / 122 40% 1 09.03.2028 -
Marezi Portsmouth Aktiv 130 / 117 40% 1 09.03.2028 -
Erik Botheim Viking Aktiv 132 / 137 40% 1 08.03.2028 -
Marcus Browne AFC Wimbledon Aktiv 107 / 111 40% 1 03.03.2028 -
Patson Daka Leicester City Aktiv 129 / 123 40% 2 02.03.2028 -
Leonardo Campana New England Revolution Aktiv 128 / 129 40% 7 01.03.2028 -
Louis Munteanu Charlotte Football Club Aktiv 138 / 120 40% 3 28.02.2028 -
Mathias Kvistgaarden Norwich City Aktiv 129 / 119 40% 1 28.02.2028 -
Kévin Denkey FC Cincinnati Aktiv 123 / 129 40% 4 25.02.2028 -
Taiwo Awoniyi Middlesbrough Aktiv 144 / 135 40% 1 25.02.2028 -
Liel Abada Inter Miami CF Aktiv 151 / 145 40% 5 23.02.2028 -
Tai Baribo Austin FC Aktiv 125 / 127 40% 2 21.02.2028 -
Yegor Kortsov Dinamo Brest Aktiv 106 / 119 40% 1 21.02.2028 -
Talles Magno New York City Aktiv 127 / 126 40% 3 20.02.2028 -
Callum Lang Preston Aktiv 126 / 119 40% 1 20.02.2028 -
Zeki Amdouni Luton Town Aktiv 146 / 140 40% 2 19.02.2028 -
Timo Werner San Jose Earthquakes Aktiv 130 / 119 40% 2 19.02.2028 -
Callum O'Hare Sheffield United Aktiv 142 / 145 40% 1 16.02.2028 -
Peter Christiansen Haugesund Aktiv 132 / 126 40% 1 16.02.2028 -
Jesus Ferreira Seattle Sounders Aktiv 138 / 134 40% 3 15.02.2028 -
Wessam Abou Ali Columbus Crew Aktiv 127 / 124 40% 2 15.02.2028 -
Indiana Vassilev Philadelphia Union Aktiv 118 / 108 40% 1 14.02.2028 -
Cheikh Sabaly Vancouver Whitecaps Aktiv 131 / 133 40% 7 09.02.2028 -
Tyrese Campbell Sheffield United Aktiv 140 / 127 40% 1 09.02.2028 -
Vinícius Lira São Paulo Aktiv 113 / 127 40% 2 08.02.2028 -
Dejan Joveljić Seattle Sounders Aktiv 134 / 128 40% 4 08.02.2028 -
Juan Brunetta Chicago Fire Aktiv 148 / 133 40% 2 08.02.2028 -
Victor Olatunji Real Salt Lake Aktiv 127 / 112 40% 1 08.02.2028 -
Björn Hedlöf Helsingborg Aktiv 90 / 90 40% 1 08.02.2028 -
Jamie Wähling Hibernians Aktiv 92 / 80 40% 1 08.02.2028 -
Agustín Anello Philadelphia Union Aktiv 137 / 130 40% 1 06.02.2028 -
Dániel Gazdag New England Revolution Aktiv 129 / 132 40% 1 04.02.2028 -
Cristian Barros Cerro Aktiv 115 / 114 40% 1 04.02.2028 -
Renato Kayser Vitória Aktiv 128 / 117 40% 1 04.02.2028 -
Alejo Cruz Juventud Aktiv 123 / 127 40% 4 03.02.2028 -
Petar Musa FC Dallas Aktiv 130 / 126 40% 2 02.02.2028 -
Yousef Salech Cardiff City Aktiv 127 / 127 40% 1 02.02.2028 -
Kasper Høgh Huracán Aktiv 137 / 138 40% 3 01.02.2028 -
Santiago Sala Güemes Aktiv 121 / 112 40% 1 30.01.2028 -
Brandon Vázquez Austin FC Aktiv 126 / 115 40% 1 30.01.2028 -
Martín Ojeda Orlando City Aktiv 139 / 133 40% 4 29.01.2028 -
Germán Berterame Inter Miami CF Aktiv 139 / 134 40% 2 29.01.2028 -
Ignacio Russo Tigre Aktiv 133 / 122 40% 2 28.01.2028 -
Alexis Cuello San Lorenzo Aktiv 127 / 121 40% 1 27.01.2028 -
Daniel Barrea Godoy Cruz Aktiv 122 / 123 40% 1 25.01.2028 -
Lisandro Cabrera Maipú Aktiv 119 / 108 40% 1 24.01.2028 -
Miguel Falé Pacos de Ferreira Aktiv 116 / 102 40% 1 23.01.2028 -
Pep Biel Charlotte Football Club Aktiv 139 / 132 40% 1 23.01.2028 -
Facundo Batista Penarol Aktiv 121 / 112 40% 1 22.01.2028 -
Ignacio Ramírez Newell's Old Boys Aktiv 120 / 125 40% 1 22.01.2028 -
Nicolás Barros Schelotto Gimnasia La Plata Aktiv 126 / 126 40% 1 22.01.2028 -
Giovanni Cantizano Fulham Aktiv 114 / 128 40% 2 20.01.2028 -
Gabe Forsyth Colchester United Aktiv 102 / 120 40% 1 20.01.2028 -
Ryan Kavuma-McQueen Accrington Stanley Aktiv 114 / 135 40% 1 20.01.2028 -
Romelle Donovan Brentford Aktiv 137 / 131 40% 1 17.01.2028 -
Nicolás Ferreira Artigas Aktiv 81 / 84 40% 1 17.01.2028 -
Tadeo Allende Inter Miami CF Aktiv 117 / 123 40% 1 15.01.2028 -
Marcelo Torres Gimnasia La Plata Aktiv 118 / 122 40% 1 15.01.2028 -
Santiago Rodríguez Gimnasia y Esgrima Aktiv 128 / 117 40% 1 14.01.2028 -
Federico Coletta Benfica Aktiv 99 / 102 40% 1 14.01.2028 -
Luighi Palmeiras Aktiv 104 / 117 40% 1 14.01.2028 -
Matias Siltanen Malmo FF Aktiv 125 / 142 40% 2 10.01.2028 -
Gorka Gorosabel Real Sociedad Aktiv 112 / 114 40% 1 10.01.2028 -
Wassim Bouziane AZ Aktiv 130 / 118 40% 1 10.01.2028 -
Juan David Rueda Alianza Petrolera Aktiv 109 / 114 40% 1 10.01.2028 -
Adalberto Peñaranda Deportivo Tachira Aktiv 124 / 117 40% 1 09.01.2028 -
Alan Bonansea Colón Aktiv 110 / 108 40% 1 06.01.2028 -
Kerim Alajbegović Modena Aktiv 137 / 148 40% 1 05.01.2028 -
Bautista Carboni Defensores Unidos Aktiv 111 / 110 40% 1 05.01.2028 -
Hwang Hee-Chan Wolverhampton Aktiv 141 / 144 40% 1 05.01.2028 -
Yarlen Botafogo Verloren 109 / 114 72% 1 13.12.2027 -
Seydou Fofana Pacos de Ferreira Aktiv 94 / 107 40% 1 11.12.2027 -
Bernardo Lima Porto Aktiv 114 / 107 40% 6 09.12.2027 -
Tiago Gordillo San Miguel Aktiv 83 / 87 40% 1 09.12.2027 -
Agustín De la Cuesta Racing Verloren 112 / 112 40% 1 09.12.2027 -
Aírton Boa Verloren 94 / 86 72% 1 01.12.2027 -
Gonçalo Oliveira Benfica Aktiv 107 / 112 40% 4 30.11.2027 -
Eduardo Felicíssimo Sporting CP Aktiv 121 / 128 40% 1 30.11.2027 -
Sampson Dweh Mallorca Aktiv 133 / 134 66% 1 01.06.2027 Befürworten
Tiago Freitas Benfica Aktiv 109 / 119 40% 2 31.05.2027 -
Bence Dárdai VfL Wolfsburg Aktiv 130 / 145 40% 1 31.05.2027 -
Ezra Mayers West Ham United Aktiv 115 / 133 40% 2 04.05.2027 -
Victor Hernandez Santa Fe Aktiv 119 / 127 40% 1 04.05.2027 -
Caleb Yirenkyi Coventry City Aktiv 130 / 145 40% 3 02.05.2027 -
Jenson Jones Walsall Aktiv 97 / 89 40% 4 02.05.2027 -
Eliás Montiel Borussia Dortmund Aktiv 129 / 143 40% 2 30.04.2027 -
Mattia Puzone Siracusa Aktiv 108 / 116 40% 1 30.04.2027 -
Finn Jeltsch VfB Stuttgart Aktiv 145 / 133 40% 4 29.04.2027 -
Germán Barbas Burgos Aktiv 99 / 122 40% 1 29.04.2027 -
Ivan Giraldo Valencia Aktiv 109 / 127 40% 4 28.04.2027 -
Chari Giwa US Bougouni Aktiv 80 / 89 40% 2 28.04.2027 -
Salvador Blopá Sporting CP Aktiv 123 / 122 40% 4 27.04.2027 -
Josh Davidson Milton Keynes Dons Aktiv 91 / 85 40% 1 27.04.2027 -
Kamaldeen Atiemo Wa All Stars Aktiv 98 / 109 40% 1 27.04.2027 -
Olivier Leroux Mouscron Aktiv 93 / 110 40% 1 26.04.2027 -
Martim Cunha Porto Aktiv 96 / 107 40% 1 26.04.2027 -
João Capucho Benfica Aktiv 105 / 100 40% 2 25.04.2027 -
Francis Gomez Cardiff City Aktiv 113 / 106 40% 1 25.04.2027 -
Riley Owen Stevenage Aktiv 96 / 111 40% 5 24.04.2027 -
Sascha Britschgi AC Milan Aktiv 120 / 123 40% 2 23.04.2027 -
Leandro Martins Benfica Aktiv 94 / 105 40% 3 23.04.2027 -
Charlie Gray Fleetwood Town Aktiv 88 / 99 40% 2 23.04.2027 -
Milan Roganović Racing Genk Aktiv 117 / 125 40% 3 20.04.2027 -
Moncef Zekri Sporting CP Aktiv 102 / 96 40% 2 17.04.2027 -
Kevin Pinto Benfica Aktiv 85 / 93 40% 1 16.04.2027 -
Kiani Inge Groningen Aktiv 98 / 113 40% 1 16.04.2027 -
Zane Albarus Shrewsbury Town Aktiv 97 / 98 40% 3 15.04.2027 -
Tomás Pérez Porto Aktiv 126 / 117 40% 2 13.04.2027 -
Andrea Bertoncini Triestina Aktiv 79 / 96 40% 1 13.04.2027 -
Afriyie Sulemana WAFA Aktiv 84 / 92 40% 1 12.04.2027 -
Bassem Hassan Masr El Makasa Aktiv 102 / 109 40% 1 11.04.2027 -
Miguel Figueiredo Benfica Aktiv 110 / 124 40% 2 09.04.2027 -
Jan Bürger Northampton Town Aktiv 116 / 124 40% 2 07.04.2027 -
Kazunari Kita Real Sociedad Aktiv 101 / 98 40% 1 07.04.2027 -
Cheveyo Tsawa Club Brugge Aktiv 122 / 128 40% 3 05.04.2027 -
Bongani Jali Free State Stars Aktiv 98 / 103 40% 1 31.03.2027 -
Edwin Asamoah Berekum Chelsea Aktiv 90 / 84 40% 1 30.03.2027 -
Mpho Khethang FC Diarra Aktiv 92 / 77 40% 1 25.03.2027 -
Axel Frugone Athletic Bilbao Aktiv 105 / 124 40% 1 25.03.2027 -
Vasco Santos Oliveirense Aktiv 82 / 88 40% 2 24.03.2027 -
Emirhan Başyiğit Sivasspor Aktiv 105 / 106 40% 1 24.03.2027 -
Afonso Assis Moreirense Aktiv 109 / 110 40% 1 24.03.2027 -
James Dornelly Peterborough United Aktiv 112 / 108 40% 1 19.03.2027 -
Henrique Silva Santa Clara Aktiv 104 / 113 40% 1 18.03.2027 -
Matvey Kislyak CSKA Moscow Aktiv 138 / 141 40% 1 17.03.2027 -
Javi Vázquez Torreense Aktiv 108 / 109 40% 1 15.12.2026 -
Tony Strata Vitoria Guimaraes Aktiv 127 / 112 40% 1 15.12.2026 -
Dylan Collard Lusitânia Lourosa Aktiv 129 / 112 40% 1 15.12.2026 -
Orlando Neto São Paulo Aktiv 100 / 89 69% 1 06.12.2026 Befürworten
Rui Pedro Felgueiras Aktiv 97 / 113 40% 1 14.08.2026 -
Carles Gil New England Revolution Aktiv 125 / 145 40% 1 14.08.2026 -
Francisco Fydriszewski Junior Aktiv 117 / 120 40% 1 13.08.2026 -
Chuchu Ramírez Nacional Aktiv 142 / 136 40% 1 13.08.2026 -
Figueiredo Alverca Aktiv 112 / 114 40% 1 06.08.2026 -
Juan Muñoz Leiria Aktiv 111 / 134 40% 1 05.08.2026 -
Manu Garrido Vizela Aktiv 113 / 112 40% 1 05.08.2026 -
Alfonso Trezza Arouca Aktiv 111 / 126 40% 1 02.08.2026 -
Yanis Begraoui Estoril Praia Aktiv 131 / 142 40% 1 02.08.2026 -
Alexey Miranchuk Atlanta United FC Aktiv 138 / 149 40% 1 02.08.2026 -